createdAt,value
2022-11-26T00:01:53.812Z,5.90
2022-11-26T00:04:57.661Z,6.00
2022-11-26T00:08:00.724Z,6.00
2022-11-26T00:11:02.848Z,5.90
2022-11-26T00:14:16.438Z,5.90
2022-11-26T00:17:19.041Z,6.10
2022-11-26T00:20:23.659Z,6.20
2022-11-26T00:23:27.857Z,6.30
2022-11-26T00:26:29.566Z,6.40
2022-11-26T00:29:31.240Z,6.50
2022-11-26T00:32:32.887Z,6.50
2022-11-26T00:35:34.589Z,6.50
2022-11-26T00:38:36.264Z,6.60
2022-11-26T00:41:38.934Z,6.60
2022-11-26T00:44:40.742Z,6.50
2022-11-26T00:47:42.525Z,6.50
2022-11-26T00:50:48.467Z,6.50
2022-11-26T00:53:53.043Z,6.40
2022-11-26T00:56:55.101Z,6.40
2022-11-26T00:59:56.767Z,6.40
2022-11-26T01:02:59.147Z,6.50
2022-11-26T01:06:00.842Z,6.40
2022-11-26T01:09:04.713Z,6.40
2022-11-26T01:12:12.541Z,6.40
2022-11-26T01:15:15.257Z,6.40
2022-11-26T01:18:19.518Z,6.30
2022-11-26T01:21:22.687Z,6.40
2022-11-26T01:24:24.358Z,6.40
2022-11-26T01:27:26.000Z,6.40
2022-11-26T01:30:30.629Z,6.60
2022-11-26T01:33:32.291Z,6.70
2022-11-26T01:36:39.795Z,6.70
2022-11-26T01:39:41.634Z,6.70
2022-11-26T01:42:49.974Z,6.70
2022-11-26T01:45:51.829Z,6.60
2022-11-26T01:48:55.035Z,6.60
2022-11-26T01:52:24.739Z,6.60
2022-11-26T01:55:32.156Z,6.60
2022-11-26T01:58:40.193Z,6.60
2022-11-26T02:01:42.138Z,6.60
2022-11-26T02:05:01.061Z,6.60
2022-11-26T02:08:03.205Z,6.50
2022-11-26T02:11:23.731Z,6.50
2022-11-26T02:14:26.567Z,6.40
2022-11-26T02:17:34.891Z,6.40
2022-11-26T02:21:01.603Z,6.40
2022-11-26T02:24:40.026Z,6.40
2022-11-26T02:27:50.996Z,6.30
2022-11-26T02:31:01.991Z,6.40
2022-11-26T02:34:09.661Z,6.30
2022-11-26T02:37:19.143Z,6.30
2022-11-26T02:40:22.847Z,6.20
2022-11-26T02:43:26.305Z,6.20
2022-11-26T02:46:29.390Z,6.20
2022-11-26T02:49:33.320Z,6.20
2022-11-26T02:52:36.339Z,6.20
2022-11-26T02:55:42.602Z,6.20
2022-11-26T02:58:44.929Z,6.10
2022-11-26T03:02:09.465Z,6.10
2022-11-26T03:05:12.748Z,6.00
2022-11-26T03:08:14.442Z,6.00
2022-11-26T03:11:16.436Z,6.00
2022-11-26T03:14:18.087Z,6.00
2022-11-26T03:17:20.218Z,6.00
2022-11-26T03:20:21.869Z,5.90
2022-11-26T03:23:23.526Z,5.80
2022-11-26T03:26:25.204Z,5.80
2022-11-26T03:29:27.083Z,5.80
2022-11-26T03:32:28.852Z,5.80
2022-11-26T03:35:30.520Z,5.80
2022-11-26T03:38:32.264Z,5.80
2022-11-26T03:41:33.995Z,5.80
2022-11-26T03:44:36.213Z,5.70
2022-11-26T03:47:39.090Z,5.70
2022-11-26T03:50:40.853Z,5.70
2022-11-26T03:53:42.582Z,5.60
2022-11-26T03:56:44.322Z,5.70
2022-11-26T03:59:45.956Z,5.60
2022-11-26T04:02:47.664Z,5.60
2022-11-26T04:05:49.348Z,5.60
2022-11-26T04:08:51.014Z,5.60
2022-11-26T04:11:52.703Z,5.60
2022-11-26T04:14:54.392Z,5.60
2022-11-26T04:17:56.055Z,5.60
2022-11-26T04:20:57.697Z,5.60
2022-11-26T04:23:59.368Z,5.60
2022-11-26T04:27:01.089Z,5.50
2022-11-26T04:30:03.716Z,5.50
2022-11-26T04:33:05.450Z,5.50
2022-11-26T04:36:07.325Z,5.50
2022-11-26T04:39:09.123Z,5.50
2022-11-26T04:42:10.784Z,5.50
2022-11-26T04:45:12.457Z,5.40
2022-11-26T04:48:14.280Z,5.40
2022-11-26T04:51:15.975Z,5.40
2022-11-26T04:54:17.669Z,5.40
2022-11-26T04:57:19.340Z,5.40
2022-11-26T05:00:21.293Z,5.40
2022-11-26T05:03:23.071Z,5.30
2022-11-26T05:06:24.719Z,5.40
2022-11-26T05:09:26.391Z,5.40
2022-11-26T05:12:28.033Z,5.40
2022-11-26T05:15:29.691Z,5.40
2022-11-26T05:18:31.359Z,5.50
2022-11-26T05:21:33.007Z,5.50
2022-11-26T05:24:34.661Z,5.50
2022-11-26T05:27:36.804Z,5.40
2022-11-26T05:30:38.589Z,5.40
2022-11-26T05:33:40.296Z,5.30
2022-11-26T05:36:41.941Z,5.30
2022-11-26T05:39:43.630Z,5.20
2022-11-26T05:42:45.315Z,5.10
2022-11-26T05:45:47.043Z,5.30
2022-11-26T05:48:48.787Z,5.30
2022-11-26T05:51:50.480Z,5.20
2022-11-26T05:54:52.174Z,5.20
2022-11-26T05:57:55.116Z,5.30
2022-11-26T06:00:56.783Z,5.20
2022-11-26T06:03:58.454Z,5.20
2022-11-26T06:07:00.119Z,5.20
2022-11-26T06:10:02.003Z,5.30
2022-11-26T06:13:03.937Z,5.30
2022-11-26T06:16:06.049Z,5.30
2022-11-26T06:19:07.708Z,5.30
2022-11-26T06:22:09.497Z,5.40
2022-11-26T06:25:13.847Z,5.50
2022-11-26T06:28:15.536Z,5.50
2022-11-26T06:31:17.258Z,5.50
2022-11-26T06:34:18.966Z,5.40
2022-11-26T06:37:20.959Z,5.30
2022-11-26T06:40:22.826Z,5.20
2022-11-26T06:43:24.494Z,5.10
2022-11-26T06:46:26.213Z,5.00
2022-11-26T06:49:27.859Z,4.90
2022-11-26T06:52:29.523Z,4.80
2022-11-26T06:55:31.211Z,4.90
2022-11-26T06:58:33.672Z,5.10
2022-11-26T07:01:35.590Z,5.00
2022-11-26T07:04:37.686Z,4.90
2022-11-26T07:07:40.226Z,5.10
2022-11-26T07:10:47.538Z,5.10
2022-11-26T07:13:51.309Z,5.10
2022-11-26T07:16:53.012Z,5.10
2022-11-26T07:19:54.664Z,5.10
2022-11-26T07:22:56.387Z,5.10
2022-11-26T07:26:02.714Z,4.70
2022-11-26T07:29:04.939Z,5.10
2022-11-26T07:32:06.610Z,5.10
2022-11-26T07:35:08.439Z,5.10
2022-11-26T07:38:10.089Z,5.20
2022-11-26T07:41:14.547Z,5.20
2022-11-26T07:44:16.297Z,5.20
2022-11-26T07:47:17.986Z,5.20
2022-11-26T07:50:19.624Z,5.20
2022-11-26T07:53:21.385Z,5.30
2022-11-26T07:56:23.082Z,5.30
2022-11-26T07:59:24.739Z,5.40
2022-11-26T08:02:26.533Z,5.40
2022-11-26T08:05:28.213Z,5.30
2022-11-26T08:08:29.887Z,5.20
2022-11-26T08:11:33.083Z,5.30
2022-11-26T08:14:34.834Z,5.40
2022-11-26T08:17:36.497Z,5.50
2022-11-26T08:20:38.134Z,5.60
2022-11-26T08:23:40.190Z,5.70
2022-11-26T08:26:44.469Z,5.80
2022-11-26T08:29:46.330Z,5.80
2022-11-26T08:32:47.991Z,5.80
2022-11-26T08:36:08.162Z,5.90
2022-11-26T08:39:13.591Z,6.00
2022-11-26T08:42:15.719Z,6.10
2022-11-26T08:45:17.403Z,6.10
2022-11-26T08:48:19.105Z,6.20
2022-11-26T08:51:20.745Z,6.20
2022-11-26T08:54:22.872Z,6.30
2022-11-26T08:57:24.639Z,6.30
2022-11-26T09:00:26.363Z,6.40
2022-11-26T09:03:32.080Z,6.40
2022-11-26T09:06:38.267Z,6.60
2022-11-26T09:09:40.245Z,6.60
2022-11-26T09:12:42.626Z,6.70
2022-11-26T09:15:44.251Z,6.80
2022-11-26T09:18:45.899Z,6.90
2022-11-26T09:21:47.800Z,7.00
2022-11-26T09:24:49.452Z,7.00
2022-11-26T09:27:51.103Z,7.10
2022-11-26T09:30:57.766Z,7.20
2022-11-26T09:34:01.283Z,7.30
2022-11-26T09:37:03.002Z,7.30
2022-11-26T09:40:05.332Z,7.30
2022-11-26T09:43:25.811Z,7.50
2022-11-26T09:46:50.873Z,7.80
2022-11-26T09:50:22.282Z,8.00
2022-11-26T09:53:31.638Z,8.20
2022-11-26T09:56:34.102Z,8.30
2022-11-26T09:59:38.223Z,8.40
2022-11-26T10:02:40.119Z,8.30
2022-11-26T10:05:56.595Z,8.30
2022-11-26T10:09:30.462Z,8.40
2022-11-26T10:13:16.733Z,8.40
2022-11-26T10:16:23.802Z,8.50
2022-11-26T10:19:40.969Z,8.60
2022-11-26T10:23:17.425Z,8.60
2022-11-26T10:26:29.726Z,8.70
2022-11-26T10:29:39.262Z,8.70
2022-11-26T10:32:45.330Z,8.80
2022-11-26T10:35:49.115Z,8.90
2022-11-26T10:38:51.881Z,8.90
2022-11-26T10:41:53.520Z,9.10
2022-11-26T10:44:55.205Z,9.20
2022-11-26T10:48:16.749Z,9.10
2022-11-26T10:51:30.166Z,9.10
2022-11-26T10:54:39.096Z,9.20
2022-11-26T10:57:47.487Z,9.30
2022-11-26T11:00:49.262Z,9.40
2022-11-26T11:04:09.329Z,9.50
2022-11-26T11:07:28.749Z,9.70
2022-11-26T11:10:30.495Z,9.70
2022-11-26T11:13:44.840Z,9.70
2022-11-26T11:16:46.683Z,9.70
2022-11-26T11:19:48.536Z,9.70
2022-11-26T11:23:16.882Z,9.90
2022-11-26T11:26:22.199Z,10.20
2022-11-26T11:29:27.434Z,10.20
2022-11-26T11:32:40.647Z,10.10
2022-11-26T11:35:42.436Z,10.10
2022-11-26T11:38:53.309Z,10.10
2022-11-26T11:41:56.836Z,10.10
2022-11-26T11:45:04.431Z,10.10
2022-11-26T11:48:58.583Z,10.10
2022-11-26T11:52:25.519Z,10.20
2022-11-26T11:55:32.441Z,10.30
2022-11-26T11:58:42.691Z,10.30
2022-11-26T12:02:26.914Z,10.30
2022-11-26T12:05:53.027Z,10.20
2022-11-26T12:09:03.741Z,10.30
2022-11-26T12:12:20.111Z,10.30
2022-11-26T12:15:45.111Z,10.30
2022-11-26T12:18:53.594Z,10.40
2022-11-26T12:22:08.420Z,10.40
2022-11-26T12:25:36.981Z,10.40
2022-11-26T12:28:51.036Z,10.50
2022-11-26T12:32:03.128Z,10.60
2022-11-26T12:35:15.529Z,10.50
2022-11-26T12:38:42.318Z,10.50
2022-11-26T12:41:51.519Z,10.50
2022-11-26T12:44:56.026Z,10.40
2022-11-26T12:48:03.019Z,10.30
2022-11-26T12:51:19.831Z,10.40
2022-11-26T12:54:47.051Z,10.40
2022-11-26T12:58:12.021Z,10.40
2022-11-26T13:01:13.847Z,10.40
2022-11-26T13:04:36.861Z,10.40
2022-11-26T13:07:52.515Z,10.40
2022-11-26T13:10:54.194Z,10.40
2022-11-26T13:14:16.874Z,10.40
2022-11-26T13:17:23.346Z,10.40
2022-11-26T13:20:37.227Z,10.50
2022-11-26T13:24:03.389Z,10.40
2022-11-26T13:27:20.054Z,10.40
2022-11-26T13:30:34.468Z,10.30
2022-11-26T13:33:59.532Z,10.30
2022-11-26T13:37:13.472Z,10.20
2022-11-26T13:40:39.487Z,10.20
2022-11-26T13:44:02.525Z,10.20
2022-11-26T13:47:09.900Z,10.20
2022-11-26T13:50:30.909Z,10.20
2022-11-26T13:54:01.267Z,10.20
2022-11-26T13:57:20.499Z,10.20
2022-11-26T14:00:33.922Z,10.20
2022-11-26T14:03:49.157Z,10.20
2022-11-26T14:07:06.143Z,10.20
2022-11-26T14:10:28.616Z,10.60
2022-11-26T14:13:30.529Z,10.20
2022-11-26T14:17:01.353Z,10.20
2022-11-26T14:20:04.294Z,10.20
2022-11-26T14:23:44.620Z,10.20
2022-11-26T14:26:46.732Z,10.30
2022-11-26T14:29:59.282Z,10.20
2022-11-26T14:33:21.707Z,10.30
2022-11-26T14:36:28.707Z,10.30
2022-11-26T14:39:31.932Z,10.20
2022-11-26T14:42:33.777Z,10.20
2022-11-26T14:45:35.964Z,10.20
2022-11-26T14:48:45.422Z,10.20
2022-11-26T14:51:49.363Z,10.20
2022-11-26T14:54:54.291Z,10.20
2022-11-26T14:58:02.752Z,10.20
2022-11-26T15:01:15.567Z,10.10
2022-11-26T15:04:34.427Z,10.10
2022-11-26T15:07:36.249Z,10.00
2022-11-26T15:10:41.181Z,9.90
2022-11-26T15:13:46.959Z,9.90
2022-11-26T15:16:58.677Z,9.80
2022-11-26T15:20:03.468Z,9.80
2022-11-26T15:23:06.748Z,9.80
2022-11-26T15:26:16.225Z,9.70
2022-11-26T15:29:28.020Z,9.60
2022-11-26T15:32:32.383Z,9.60
2022-11-26T15:35:36.144Z,9.50
2022-11-26T15:38:58.602Z,9.40
2022-11-26T15:42:30.260Z,9.50
2022-11-26T15:45:39.973Z,9.40
2022-11-26T15:48:52.061Z,9.40
2022-11-26T15:52:03.644Z,9.40
2022-11-26T15:55:12.837Z,9.40
2022-11-26T15:58:28.419Z,9.40
2022-11-26T16:01:34.322Z,9.40
2022-11-26T16:04:43.810Z,9.30
2022-11-26T16:08:04.067Z,9.30
2022-11-26T16:11:20.413Z,9.30
2022-11-26T16:14:23.571Z,9.30
2022-11-26T16:17:25.247Z,9.30
2022-11-26T16:20:29.454Z,9.30
2022-11-26T16:23:31.446Z,9.20
2022-11-26T16:26:59.141Z,9.20
2022-11-26T16:30:06.400Z,9.20
2022-11-26T16:33:08.252Z,9.10
2022-11-26T16:36:24.756Z,9.10
2022-11-26T16:39:30.174Z,9.10
2022-11-26T16:42:32.565Z,9.10
2022-11-26T16:45:34.222Z,9.00
2022-11-26T16:48:35.991Z,9.00
2022-11-26T16:51:37.649Z,9.00
2022-11-26T16:54:39.711Z,9.00
2022-11-26T16:57:45.493Z,8.80
2022-11-26T17:00:47.334Z,8.80
2022-11-26T17:03:49.022Z,8.80
2022-11-26T17:06:50.716Z,8.80
2022-11-26T17:09:53.734Z,8.80
2022-11-26T17:12:55.995Z,9.40
2022-11-26T17:15:58.115Z,8.80
2022-11-26T17:18:59.787Z,8.70
2022-11-26T17:22:01.455Z,8.80
2022-11-26T17:25:03.952Z,8.80
2022-11-26T17:28:13.627Z,8.70
2022-11-26T17:31:15.541Z,8.70
2022-11-26T17:34:17.265Z,8.70
2022-11-26T17:37:29.743Z,8.60
2022-11-26T17:40:31.542Z,8.60
2022-11-26T17:44:05.069Z,8.50
2022-11-26T17:47:27.908Z,8.30
2022-11-26T17:50:52.628Z,9.40
2022-11-26T17:54:07.253Z,7.90
2022-11-26T17:57:27.114Z,8.80
2022-11-26T18:00:34.211Z,8.00
2022-11-26T18:03:50.999Z,8.50
2022-11-26T18:07:09.705Z,6.80
2022-11-26T18:10:30.203Z,8.10
2022-11-26T18:13:35.152Z,8.00
2022-11-26T18:20:23.839Z,9.30
2022-11-26T18:23:31.371Z,7.80
2022-11-26T18:26:56.517Z,7.80
2022-11-26T18:34:19.714Z,7.90
2022-11-26T18:37:40.014Z,7.00
2022-11-26T18:41:19.805Z,8.80
2022-11-26T18:44:22.515Z,7.60
2022-11-26T18:47:47.147Z,8.20
2022-11-26T18:51:13.854Z,7.70
2022-11-26T18:54:25.093Z,7.60
2022-11-26T19:01:39.229Z,6.50
2022-11-26T19:04:57.987Z,6.00
2022-11-26T19:08:24.581Z,6.00
2022-11-26T19:11:34.439Z,7.30
2022-11-26T19:15:10.330Z,7.80
2022-11-26T19:18:27.915Z,7.00
2022-11-26T19:22:02.866Z,6.90
2022-11-26T19:25:54.723Z,6.70
2022-11-26T19:32:37.307Z,7.20
2022-11-26T19:35:57.086Z,7.10
2022-11-26T19:39:23.263Z,7.00
2022-11-26T19:43:19.240Z,6.50
2022-11-26T19:51:21.208Z,6.80
2022-11-26T19:55:19.367Z,6.00
2022-11-26T19:59:16.492Z,5.20
2022-11-26T20:06:33.652Z,5.80
2022-11-26T20:10:16.752Z,5.80
2022-11-26T20:13:29.873Z,5.60
2022-11-26T20:16:50.357Z,5.10
2022-11-26T20:24:05.393Z,4.40
2022-11-26T20:27:27.410Z,5.80
2022-11-26T20:31:00.896Z,7.10
2022-11-26T20:34:15.718Z,6.20
2022-11-26T20:37:48.652Z,6.40
2022-11-26T20:44:39.340Z,5.70
2022-11-26T20:47:52.962Z,7.50
2022-11-26T20:54:40.025Z,6.20
2022-11-26T20:58:11.425Z,7.00
2022-11-26T21:01:49.581Z,6.30
2022-11-26T21:04:58.464Z,6.30
2022-11-26T21:11:53.720Z,6.40
2022-11-26T21:18:39.544Z,7.40
2022-11-26T21:21:50.920Z,8.00
2022-11-26T21:29:00.056Z,6.50
2022-11-26T21:32:11.084Z,7.50
2022-11-26T21:39:43.293Z,6.50
2022-11-26T21:42:56.171Z,7.40
2022-11-26T21:46:11.426Z,6.60
2022-11-26T21:49:26.654Z,7.70
2022-11-26T21:52:37.967Z,6.40
2022-11-26T21:59:20.650Z,7.30
2022-11-26T22:02:22.397Z,7.30
2022-11-26T22:05:24.187Z,6.70
2022-11-26T22:08:26.131Z,6.60
2022-11-26T22:11:30.284Z,6.60
2022-11-26T22:14:31.963Z,7.70
2022-11-26T22:17:33.715Z,6.40
2022-11-26T22:20:35.473Z,6.50
2022-11-26T22:23:37.250Z,6.40
2022-11-26T22:26:39.115Z,6.40
2022-11-26T22:29:41.056Z,6.30
2022-11-26T22:32:43.065Z,6.40
2022-11-26T22:35:44.801Z,6.40
2022-11-26T22:38:47.486Z,6.40
2022-11-26T22:41:49.549Z,7.30
2022-11-26T22:44:51.279Z,7.70
2022-11-26T22:47:53.147Z,6.30
2022-11-26T22:50:55.403Z,6.20
2022-11-26T22:53:59.967Z,6.10
2022-11-26T22:57:01.676Z,6.40
2022-11-26T23:00:08.360Z,6.10
2022-11-26T23:03:10.558Z,6.10
2022-11-26T23:06:14.188Z,6.10
2022-11-26T23:09:15.940Z,6.10
2022-11-26T23:12:17.665Z,6.10
2022-11-26T23:15:19.390Z,6.00
2022-11-26T23:18:21.078Z,7.30
2022-11-26T23:21:28.972Z,6.10
2022-11-26T23:24:30.666Z,6.10
2022-11-26T23:27:32.328Z,6.10
2022-11-26T23:30:34.915Z,6.00
2022-11-26T23:33:36.772Z,6.00
2022-11-26T23:36:39.147Z,6.00
2022-11-26T23:39:41.016Z,6.00
2022-11-26T23:42:42.923Z,6.00
2022-11-26T23:45:44.656Z,6.00
2022-11-26T23:48:48.104Z,5.90
2022-11-26T23:51:49.791Z,5.90
2022-11-26T23:54:51.510Z,5.90
2022-11-26T23:57:53.190Z,5.90
